Time;durP1;ratioP1;P1;durP2;ratioP2;P2;SDS_P1;SDS_P2;PMS_P1;PMS_P2;Temp;Humidity;BMP_temperature;BMP_pressure;BME280_temperature;BME280_humidity;BME280_pressure;Samples;Min_cycle;Max_cycle;Signal;HPM_P1;HPM_P2
2023/09/24 00:02:14;;;;;;;4.07;2.50;;;;;;;10.99;88.65;101556.09;5046810;28;20238;-74
2023/09/24 00:04:41;;;;;;;2.90;2.37;;;;;;;11.00;88.98;101558.44;5052110;28;20194;-74
2023/09/24 00:07:08;;;;;;;4.47;2.40;;;;;;;11.03;89.15;101565.00;5056990;28;20256;-74
2023/09/24 00:09:36;;;;;;;2.90;2.33;;;;;;;11.04;88.28;101571.81;5050915;28;20222;-74
2023/09/24 00:12:02;;;;;;;3.77;2.40;;;;;;;11.03;89.03;101572.91;5050416;28;20211;-74
2023/09/24 00:14:30;;;;;;;2.80;2.13;;;;;;;11.03;88.91;101568.41;5043430;28;20195;-74
2023/09/24 00:16:57;;;;;;;3.13;2.43;;;;;;;11.00;88.51;101573.50;5033874;28;20290;-74
2023/09/24 00:19:24;;;;;;;5.67;2.70;;;;;;;10.95;87.92;101569.16;5047537;28;20588;-74
2023/09/24 00:21:51;;;;;;;2.97;2.20;;;;;;;10.89;87.19;101578.28;5044201;28;20199;-74
2023/09/24 00:24:17;;;;;;;4.33;2.20;;;;;;;10.86;87.39;101576.25;5049108;28;20200;-74
2023/09/24 00:26:46;;;;;;;2.27;2.00;;;;;;;10.82;87.12;101583.19;5038460;28;20285;-74
2023/09/24 00:29:13;;;;;;;2.83;2.10;;;;;;;10.76;86.84;101586.28;5046993;28;20301;-74
2023/09/24 00:31:40;;;;;;;5.50;2.10;;;;;;;10.70;87.15;101582.19;5063916;28;20206;-74
2023/09/24 00:34:12;;;;;;;2.00;1.80;;;;;;;10.66;87.85;101594.47;5035909;28;20207;-74
2023/09/24 00:36:39;;;;;;;2.70;2.30;;;;;;;10.63;88.01;101584.50;5065699;28;20271;-74
2023/09/24 00:39:05;;;;;;;4.33;2.30;;;;;;;10.57;87.87;101586.47;5059646;28;20357;-74
2023/09/24 00:41:31;;;;;;;4.70;2.10;;;;;;;10.53;88.29;101588.16;5056882;28;20203;-73
2023/09/24 00:44:01;;;;;;;3.23;2.13;;;;;;;10.50;89.53;101594.03;5033070;28;20209;-74
2023/09/24 00:46:30;;;;;;;3.70;2.20;;;;;;;10.47;89.30;101589.38;5051673;28;20236;-74
2023/09/24 00:48:58;;;;;;;3.90;2.40;;;;;;;10.42;89.93;101588.69;5043624;28;20724;-74
2023/09/24 00:51:26;;;;;;;4.97;2.00;;;;;;;10.37;89.79;101589.59;5033214;28;20210;-73
2023/09/24 00:53:54;;;;;;;4.30;2.57;;;;;;;10.34;89.95;101584.91;5034908;28;20210;-74
2023/09/24 00:56:21;;;;;;;2.33;2.00;;;;;;;10.31;89.87;101582.84;5048246;28;20216;-74
2023/09/24 00:58:50;;;;;;;2.97;2.47;;;;;;;10.25;89.90;101585.94;5035358;28;20226;-74
2023/09/24 01:01:20;;;;;;;2.50;2.20;;;;;;;10.23;90.39;101588.06;5050035;28;20208;-73
2023/09/24 01:03:49;;;;;;;3.70;2.13;;;;;;;10.19;90.69;101595.81;5032056;28;20202;-73
2023/09/24 01:06:17;;;;;;;5.00;2.40;;;;;;;10.14;90.96;101587.22;5025704;28;20205;-74
2023/09/24 01:08:43;;;;;;;5.50;2.37;;;;;;;10.13;91.14;101596.19;5025102;28;20336;-74
2023/09/24 01:11:10;;;;;;;2.60;2.00;;;;;;;10.10;91.21;101594.94;5031423;28;20296;-74
2023/09/24 01:13:37;;;;;;;4.73;2.37;;;;;;;10.05;91.42;101608.25;5031089;28;20301;-74
2023/09/24 01:16:07;;;;;;;4.90;2.47;;;;;;;10.03;91.03;101601.66;5043692;28;20247;-74
2023/09/24 01:18:37;;;;;;;3.37;2.40;;;;;;;10.00;91.64;101607.56;5022035;28;20201;-74
2023/09/24 01:21:12;;;;;;;4.37;2.00;;;;;;;9.98;92.04;101607.84;5052474;28;20614;-74
2023/09/24 01:23:42;;;;;;;3.73;2.10;;;;;;;9.96;92.03;101612.66;5021385;28;20206;-74
2023/09/24 01:26:11;;;;;;;5.27;2.33;;;;;;;9.92;92.22;101610.88;5031154;28;20193;-74
2023/09/24 01:28:40;;;;;;;3.40;2.47;;;;;;;9.89;92.10;101609.59;5043788;28;20355;-74
2023/09/24 01:31:08;;;;;;;2.77;2.27;;;;;;;9.88;92.46;101617.84;5036117;28;20206;-74
2023/09/24 01:33:38;;;;;;;3.50;2.10;;;;;;;9.89;92.51;101616.75;5031449;28;20218;-74
2023/09/24 01:36:05;;;;;;;2.07;1.90;;;;;;;9.83;92.34;101620.59;5046615;28;20195;-74
2023/09/24 01:38:32;;;;;;;2.43;2.07;;;;;;;9.81;92.50;101623.50;5032499;28;20209;-74
2023/09/24 01:41:00;;;;;;;3.47;2.43;;;;;;;9.80;93.12;101627.22;5032318;28;20211;-74
2023/09/24 01:43:27;;;;;;;2.87;2.27;;;;;;;9.75;93.01;101629.16;5043544;28;20586;-74
2023/09/24 01:45:53;;;;;;;3.33;2.70;;;;;;;9.73;92.79;101634.72;5032570;28;20203;-74
2023/09/24 01:48:19;;;;;;;2.80;2.50;;;;;;;9.72;93.02;101630.53;5031524;28;20205;-74
2023/09/24 01:50:46;;;;;;;4.00;2.27;;;;;;;9.68;93.17;101639.34;5031191;28;20205;-74
2023/09/24 01:53:14;;;;;;;4.77;2.80;;;;;;;9.66;93.54;101649.38;5027110;28;20200;-74
2023/09/24 01:55:40;;;;;;;2.60;2.23;;;;;;;9.64;93.34;101654.94;5023471;28;20238;-74
2023/09/24 01:58:08;;;;;;;5.73;3.00;;;;;;;9.63;93.50;101661.31;5034037;28;20329;-74
2023/09/24 02:00:36;;;;;;;3.77;2.90;;;;;;;9.64;94.03;101664.72;5029103;28;20245;-74
2023/09/24 02:03:06;;;;;;;3.57;2.87;;;;;;;9.58;93.89;101671.19;5048578;28;20606;-74
2023/09/24 02:05:33;;;;;;;3.80;3.37;;;;;;;9.57;93.96;101665.09;5041595;28;20199;-74
2023/09/24 02:08:00;;;;;;;4.70;2.67;;;;;;;9.58;94.14;101673.81;5052025;28;20249;-74
2023/09/24 02:10:27;;;;;;;4.20;2.87;;;;;;;9.54;94.32;101675.47;5033082;28;20228;-74
2023/09/24 02:12:54;;;;;;;5.20;3.00;;;;;;;9.49;93.73;101673.72;5043359;28;20230;-74
2023/09/24 02:15:23;;;;;;;3.37;2.83;;;;;;;9.50;94.37;101670.00;5068197;28;20199;-74
2023/09/24 02:17:50;;;;;;;3.50;2.63;;;;;;;9.46;94.18;101666.38;5036825;28;20227;-74
2023/09/24 02:20:24;;;;;;;3.23;2.90;;;;;;;9.46;94.53;101660.31;5028674;28;20222;-74
2023/09/24 02:22:52;;;;;;;5.53;2.70;;;;;;;9.43;94.05;101656.41;5018525;28;20202;-74
2023/09/24 02:25:19;;;;;;;4.13;3.13;;;;;;;9.44;94.62;101673.00;5040733;28;20523;-74
2023/09/24 02:27:46;;;;;;;6.10;3.37;;;;;;;9.41;94.51;101682.28;5032167;28;20192;-74
2023/09/24 02:30:13;;;;;;;3.90;2.73;;;;;;;9.38;94.81;101687.34;5032587;28;20211;-74
2023/09/24 02:32:42;;;;;;;3.70;2.83;;;;;;;9.38;94.76;101685.47;5050756;28;20208;-74
2023/09/24 02:35:10;;;;;;;4.83;3.17;;;;;;;9.34;94.71;101687.16;5042281;28;20196;-74
2023/09/24 02:37:38;;;;;;;3.30;2.67;;;;;;;9.33;94.59;101690.88;5048654;28;20221;-74
2023/09/24 02:40:14;;;;;;;3.30;3.00;;;;;;;9.35;95.04;101701.09;5045737;28;20220;-74
2023/09/24 02:42:41;;;;;;;4.20;2.90;;;;;;;9.32;94.82;101699.81;5043907;28;20191;-74
2023/09/24 02:45:09;;;;;;;4.10;3.10;;;;;;;9.33;95.29;101700.63;5044570;28;20194;-74
2023/09/24 02:47:43;;;;;;;3.97;3.00;;;;;;;9.27;95.24;101707.81;5045643;28;20207;-74
2023/09/24 02:50:12;;;;;;;3.43;2.87;;;;;;;9.26;95.08;101705.50;5031149;28;20214;-74
2023/09/24 02:52:42;;;;;;;3.83;3.00;;;;;;;9.23;94.90;101709.47;5032455;28;20315;-74
2023/09/24 02:55:13;;;;;;;6.27;3.07;;;;;;;9.22;94.80;101712.41;5043766;28;20597;-74
2023/09/24 02:57:43;;;;;;;6.10;3.60;;;;;;;9.19;94.85;101715.59;5037503;28;20617;-74
2023/09/24 03:00:19;;;;;;;3.73;3.07;;;;;;;9.18;95.21;101720.09;5038591;28;20702;-74
2023/09/24 03:02:47;;;;;;;3.80;3.47;;;;;;;9.17;95.56;101734.31;5048664;28;20187;-74
2023/09/24 03:05:20;;;;;;;2.80;2.60;;;;;;;9.17;95.14;101738.84;5034133;28;20191;-74
2023/09/24 03:07:49;;;;;;;6.93;3.30;;;;;;;9.13;95.63;101746.53;5032232;28;20196;-73
2023/09/24 03:10:19;;;;;;;3.90;2.93;;;;;;;9.11;95.59;101746.03;5058967;28;20227;-73
2023/09/24 03:12:48;;;;;;;3.40;3.00;;;;;;;9.10;95.51;101746.31;5042859;28;20585;-74
2023/09/24 03:15:15;;;;;;;4.23;3.37;;;;;;;9.08;95.75;101746.63;5027690;28;20196;-74
2023/09/24 03:17:46;;;;;;;5.13;3.73;;;;;;;9.05;95.46;101744.53;5043094;28;20202;-74
2023/09/24 03:20:15;;;;;;;5.53;3.63;;;;;;;9.05;95.38;101749.81;5031492;28;20825;-73
2023/09/24 03:22:42;;;;;;;4.30;3.23;;;;;;;9.03;95.75;101751.16;5042079;28;20195;-74
2023/09/24 03:25:10;;;;;;;5.93;4.20;;;;;;;9.02;95.76;101753.03;5054624;28;20203;-73
2023/09/24 03:27:38;;;;;;;3.83;3.17;;;;;;;9.00;95.42;101747.25;5021590;28;20287;-73
2023/09/24 03:30:09;;;;;;;4.10;3.07;;;;;;;9.00;95.70;101757.03;5031045;28;20215;-74
2023/09/24 03:32:36;;;;;;;4.03;3.23;;;;;;;9.00;95.65;101759.66;5021385;28;20306;-73
2023/09/24 03:35:04;;;;;;;3.80;3.40;;;;;;;8.99;95.84;101763.34;5024343;28;20201;-74
2023/09/24 03:37:33;;;;;;;5.20;3.20;;;;;;;8.96;95.61;101767.31;5049122;28;20554;-74
2023/09/24 03:39:59;;;;;;;3.60;3.07;;;;;;;8.92;95.53;101774.25;5046343;28;20562;-73
2023/09/24 03:42:26;;;;;;;4.07;3.67;;;;;;;8.93;96.21;101767.91;5031073;28;20694;-74
2023/09/24 03:44:52;;;;;;;6.37;3.67;;;;;;;8.91;95.91;101774.53;5039930;28;20210;-74
2023/09/24 03:47:20;;;;;;;4.20;3.57;;;;;;;8.89;95.82;101777.44;5025673;28;20254;-73
2023/09/24 03:49:46;;;;;;;4.27;3.47;;;;;;;8.89;96.24;101780.06;5045373;28;20211;-73
2023/09/24 03:52:12;;;;;;;5.63;3.43;;;;;;;8.88;95.84;101781.16;5035161;28;20203;-74
2023/09/24 03:54:40;;;;;;;5.40;3.37;;;;;;;8.90;96.07;101799.31;5032695;28;20203;-74
2023/09/24 03:57:06;;;;;;;6.87;3.80;;;;;;;8.91;96.44;101793.72;5038049;28;20195;-73
2023/09/24 03:59:36;;;;;;;4.30;3.90;;;;;;;8.88;96.61;101796.94;5034962;28;20223;-74
2023/09/24 04:02:06;;;;;;;5.10;4.00;;;;;;;8.90;96.81;101802.72;5047630;28;20202;-73
2023/09/24 04:04:32;;;;;;;6.40;3.93;;;;;;;8.88;96.95;101804.06;5036332;28;20268;-74
2023/09/24 04:06:59;;;;;;;5.33;3.80;;;;;;;8.88;97.05;101814.59;5034879;28;20193;-73
2023/09/24 04:09:25;;;;;;;6.50;4.13;;;;;;;8.87;96.97;101810.41;5063420;28;20227;-74
2023/09/24 04:11:53;;;;;;;5.00;3.87;;;;;;;8.85;96.74;101810.69;5038176;28;20203;-74
2023/09/24 04:14:20;;;;;;;8.70;4.90;;;;;;;8.85;96.52;101826.47;5052183;28;20199;-74
2023/09/24 04:16:46;;;;;;;9.17;4.50;;;;;;;8.85;96.98;101826.47;5039682;28;20196;-74
2023/09/24 04:19:12;;;;;;;6.53;3.93;;;;;;;8.87;97.20;101821.72;5048259;28;20221;-74
2023/09/24 04:21:39;;;;;;;5.10;4.43;;;;;;;8.87;97.76;101824.38;5055773;28;20184;-74
2023/09/24 04:24:05;;;;;;;5.30;4.33;;;;;;;8.86;97.19;101822.78;5033392;28;20200;-74
2023/09/24 04:26:32;;;;;;;5.63;4.17;;;;;;;8.88;97.59;101827.75;5051162;28;20274;-74
2023/09/24 04:29:01;;;;;;;4.80;3.63;;;;;;;8.89;97.77;101837.22;5033498;28;20584;-74
2023/09/24 04:31:28;;;;;;;6.23;4.50;;;;;;;8.88;97.40;101835.66;5049778;28;20699;-74
2023/09/24 04:33:54;;;;;;;6.00;4.93;;;;;;;8.93;97.55;101833.75;5050603;28;20294;-74
2023/09/24 04:36:20;;;;;;;5.20;4.23;;;;;;;8.98;97.93;101848.72;5046549;28;20211;-74
2023/09/24 04:38:48;;;;;;;6.57;4.73;;;;;;;9.08;98.15;101851.22;5044611;28;20222;-74
2023/09/24 04:41:15;;;;;;;6.23;5.03;;;;;;;9.13;98.56;101841.41;5046590;28;20195;-74
2023/09/24 04:43:42;;;;;;;6.60;5.43;;;;;;;9.21;98.94;101847.88;5046712;28;20616;-74
2023/09/24 04:46:11;;;;;;;5.27;4.43;;;;;;;9.27;99.22;101855.41;5033141;28;20719;-74
2023/09/24 04:48:37;;;;;;;5.60;4.87;;;;;;;9.38;99.29;101850.78;5037827;28;20819;-74
2023/09/24 04:51:04;;;;;;;8.20;5.13;;;;;;;9.43;99.49;101848.84;5051185;28;20216;-73
2023/09/24 04:53:31;;;;;;;6.27;5.03;;;;;;;9.55;99.34;101864.22;5046096;28;20208;-74
2023/09/24 04:55:58;;;;;;;5.93;5.30;;;;;;;9.58;99.51;101872.34;5043922;28;20275;-74
2023/09/24 04:58:27;;;;;;;5.73;4.90;;;;;;;9.65;99.40;101880.69;5050122;28;20201;-74
2023/09/24 05:01:04;;;;;;;6.20;4.60;;;;;;;9.75;99.42;101888.44;5039100;28;20204;-74
2023/09/24 05:03:32;;;;;;;6.90;4.87;;;;;;;9.81;99.36;101889.13;5035146;28;20685;-74
2023/09/24 05:05:59;;;;;;;6.73;4.80;;;;;;;9.85;99.01;101893.56;5048310;28;20210;-74
2023/09/24 05:08:25;;;;;;;7.00;5.27;;;;;;;9.92;98.90;101895.81;5044379;28;20201;-74
2023/09/24 05:10:52;;;;;;;5.57;4.70;;;;;;;9.96;98.57;101897.59;5041808;28;20300;-74
2023/09/24 05:13:19;;;;;;;8.83;5.10;;;;;;;10.04;97.86;101901.47;5044615;28;20213;-74
2023/09/24 05:15:50;;;;;;;6.70;4.93;;;;;;;10.10;98.10;101902.94;5045828;28;20563;-74
2023/09/24 05:18:17;;;;;;;6.23;4.50;;;;;;;10.15;96.81;101902.88;5047652;28;20199;-74
2023/09/24 05:20:47;;;;;;;7.57;4.90;;;;;;;10.19;97.36;101904.63;5044232;28;20454;-74
2023/09/24 05:23:13;;;;;;;9.57;6.27;;;;;;;10.27;96.48;101911.09;5050968;28;20201;-74
2023/09/24 05:25:40;;;;;;;5.37;4.40;;;;;;;10.32;96.16;101914.44;5050925;28;20202;-74
2023/09/24 05:28:07;;;;;;;8.17;4.60;;;;;;;10.36;95.52;101914.63;5041218;28;20227;-74
2023/09/24 05:30:34;;;;;;;6.13;4.67;;;;;;;10.42;95.69;101922.19;5060090;28;20222;-74
2023/09/24 05:33:01;;;;;;;6.07;4.30;;;;;;;10.49;95.72;101919.13;5040788;28;20234;-74
2023/09/24 05:35:27;;;;;;;4.97;4.23;;;;;;;10.55;94.94;101920.59;5045865;28;20211;-74
2023/09/24 05:37:55;;;;;;;5.50;4.27;;;;;;;10.62;94.57;101921.03;5039958;28;20202;-74
2023/09/24 05:40:21;;;;;;;5.77;4.20;;;;;;;10.67;94.67;101923.56;5038387;28;20230;-73
2023/09/24 05:42:50;;;;;;;16.27;5.43;;;;;;;10.73;94.18;101935.59;5047976;28;20206;-74
2023/09/24 05:45:22;;;;;;;4.70;4.23;;;;;;;10.80;93.63;101943.91;5032318;28;20657;-74
2023/09/24 05:47:48;;;;;;;4.80;3.90;;;;;;;10.84;93.24;101942.25;5041301;28;20202;-74
2023/09/24 05:50:18;;;;;;;8.07;4.20;;;;;;;10.90;93.17;101946.38;5057535;28;20232;-74
2023/09/24 05:52:44;;;;;;;7.60;4.10;;;;;;;10.95;92.12;101947.06;5045635;28;20200;-74
2023/09/24 05:55:12;;;;;;;5.20;3.57;;;;;;;11.01;92.69;101953.00;5041239;28;20196;-74
2023/09/24 05:57:41;;;;;;;7.90;4.20;;;;;;;11.06;92.76;101958.19;5037260;28;20741;-74
2023/09/24 06:00:10;;;;;;;5.27;3.80;;;;;;;11.12;92.72;101951.75;5030901;28;20223;-74
2023/09/24 06:02:40;;;;;;;7.33;3.90;;;;;;;11.19;92.67;101952.13;5049928;28;20202;-75
2023/09/24 06:05:09;;;;;;;5.50;3.70;;;;;;;11.23;92.41;101959.16;5047421;28;20212;-75
2023/09/24 06:07:35;;;;;;;5.00;3.63;;;;;;;11.28;91.79;101963.59;5031550;28;20204;-75
2023/09/24 06:10:04;;;;;;;3.70;3.10;;;;;;;11.33;92.22;101968.78;5047230;28;20229;-74
2023/09/24 06:12:32;;;;;;;3.63;3.20;;;;;;;11.34;92.39;101967.69;5040213;28;20204;-74
2023/09/24 06:14:59;;;;;;;3.73;3.27;;;;;;;11.36;91.80;101974.25;5047812;28;20207;-75
2023/09/24 06:17:25;;;;;;;5.40;3.63;;;;;;;11.38;92.15;101980.00;5030190;28;20206;-74
2023/09/24 06:19:52;;;;;;;5.47;3.33;;;;;;;11.40;92.12;101974.44;5047348;28;20226;-75
2023/09/24 06:22:18;;;;;;;4.57;3.63;;;;;;;11.42;92.06;101977.53;5044920;28;20219;-74
2023/09/24 06:24:44;;;;;;;7.33;3.20;;;;;;;11.43;92.48;101987.84;5034894;28;20203;-74
2023/09/24 06:27:11;;;;;;;4.90;3.30;;;;;;;11.46;91.87;101983.81;5040170;28;20679;-74
2023/09/24 06:29:44;;;;;;;4.20;3.43;;;;;;;11.49;92.35;101991.16;5023621;28;20308;-75
2023/09/24 06:32:10;;;;;;;4.90;3.50;;;;;;;11.49;91.47;101991.16;5046020;28;20546;-74
2023/09/24 06:34:37;;;;;;;3.77;3.40;;;;;;;11.49;90.93;101981.34;5045301;28;20200;-75
2023/09/24 06:37:04;;;;;;;5.07;3.70;;;;;;;11.53;90.85;101990.28;5049362;28;20704;-74
2023/09/24 06:39:30;;;;;;;4.13;3.70;;;;;;;11.55;90.21;101996.03;5044812;28;20220;-74
2023/09/24 06:41:57;;;;;;;6.47;4.30;;;;;;;11.59;90.13;101996.28;5041231;28;20223;-74
2023/09/24 06:44:25;;;;;;;4.67;4.20;;;;;;;11.61;89.17;101997.56;5038386;28;20200;-74
2023/09/24 06:46:53;;;;;;;6.60;4.10;;;;;;;11.65;88.96;102001.13;5045041;28;20200;-75
2023/09/24 06:49:20;;;;;;;8.23;4.07;;;;;;;11.70;89.40;102002.91;5031153;28;20259;-75
2023/09/24 06:51:46;;;;;;;5.77;3.97;;;;;;;11.75;89.46;102005.44;5046480;28;20291;-74
2023/09/24 06:54:13;;;;;;;5.83;4.20;;;;;;;11.80;89.28;102010.63;5043587;28;20242;-74
2023/09/24 06:56:42;;;;;;;5.80;5.10;;;;;;;11.85;89.57;102006.00;5049168;28;20250;-75
2023/09/24 06:59:09;;;;;;;7.03;4.57;;;;;;;11.91;89.13;102018.03;5039086;28;20248;-75
2023/09/24 07:01:36;;;;;;;8.60;4.00;;;;;;;11.96;89.21;102019.78;5036704;28;20755;-75
2023/09/24 07:04:04;;;;;;;4.83;4.17;;;;;;;12.01;88.97;102019.69;5029303;28;20212;-74
2023/09/24 07:06:33;;;;;;;5.90;4.40;;;;;;;12.09;88.35;102029.53;5035731;28;20269;-75
2023/09/24 07:09:00;;;;;;;4.97;4.00;;;;;;;12.13;88.05;102033.94;5043692;28;20360;-74
2023/09/24 07:11:28;;;;;;;7.20;4.33;;;;;;;12.20;88.69;102044.91;5051732;28;20239;-74
2023/09/24 07:13:55;;;;;;;5.37;4.47;;;;;;;12.26;88.50;102045.59;5030359;28;20192;-75
2023/09/24 07:16:23;;;;;;;7.13;5.00;;;;;;;12.33;87.22;102044.06;5043443;28;20327;-75
2023/09/24 07:18:50;;;;;;;5.07;4.57;;;;;;;12.40;87.66;102043.63;5043693;28;20253;-75
2023/09/24 07:21:18;;;;;;;5.40;4.50;;;;;;;12.46;87.40;102040.56;5048382;28;20200;-75
2023/09/24 07:23:51;;;;;;;5.47;4.80;;;;;;;12.56;86.47;102045.63;5022108;28;20209;-75
2023/09/24 07:26:17;;;;;;;8.87;4.70;;;;;;;12.62;86.72;102039.09;5050914;28;20208;-75
2023/09/24 07:28:46;;;;;;;7.83;5.10;;;;;;;12.70;86.54;102046.34;5052079;28;20232;-75
2023/09/24 07:31:14;;;;;;;9.10;5.27;;;;;;;12.78;85.89;102050.88;5051715;28;20220;-75
2023/09/24 07:33:42;;;;;;;6.80;4.80;;;;;;;12.85;85.50;102047.81;5045921;28;20282;-74
2023/09/24 07:36:09;;;;;;;9.47;5.10;;;;;;;12.94;85.05;102057.34;5044661;28;20616;-75
2023/09/24 07:38:37;;;;;;;6.70;5.17;;;;;;;13.01;84.95;102063.06;5033535;28;20660;-75
2023/09/24 07:41:03;;;;;;;6.07;4.60;;;;;;;13.10;84.56;102055.13;5039241;28;20198;-75
2023/09/24 07:43:30;;;;;;;10.43;5.13;;;;;;;13.18;83.71;102063.13;5038406;28;20197;-75
2023/09/24 07:45:56;;;;;;;6.97;4.80;;;;;;;13.25;84.57;102060.03;5047450;28;20202;-75
2023/09/24 07:48:23;;;;;;;5.60;4.83;;;;;;;13.36;84.51;102074.56;5033169;28;20201;-75
2023/09/24 07:50:52;;;;;;;7.10;4.97;;;;;;;13.45;84.08;102075.38;5042637;28;20239;-75
2023/09/24 07:53:19;;;;;;;8.23;5.80;;;;;;;13.57;83.04;102073.69;5046032;28;20282;-75
2023/09/24 07:55:46;;;;;;;6.10;4.83;;;;;;;13.67;83.05;102078.69;5022810;28;20205;-74
2023/09/24 07:58:13;;;;;;;9.53;5.57;;;;;;;13.75;83.05;102069.97;5048845;28;20580;-75
2023/09/24 08:00:40;;;;;;;7.07;5.50;;;;;;;13.84;82.32;102076.09;5043329;28;20256;-75
2023/09/24 08:03:07;;;;;;;8.37;5.20;;;;;;;13.91;82.03;102073.75;5040406;28;20200;-75
2023/09/24 08:05:33;;;;;;;5.07;4.57;;;;;;;14.02;81.77;102076.91;5051645;28;20199;-75
2023/09/24 08:07:59;;;;;;;7.47;5.53;;;;;;;14.12;81.21;102092.53;5049371;28;20207;-75
2023/09/24 08:10:26;;;;;;;8.13;5.20;;;;;;;14.16;81.24;102086.25;5046343;28;20650;-74
2023/09/24 08:12:55;;;;;;;6.37;4.93;;;;;;;14.27;80.79;102090.19;5033087;28;20222;-75
2023/09/24 08:15:21;;;;;;;7.27;5.00;;;;;;;14.37;79.94;102095.19;5047406;28;20198;-74
2023/09/24 08:17:48;;;;;;;7.00;4.97;;;;;;;14.43;80.80;102096.59;5048362;28;20202;-75
2023/09/24 08:20:14;;;;;;;7.37;5.60;;;;;;;14.51;80.43;102097.69;5046137;28;20229;-74
2023/09/24 08:22:41;;;;;;;7.17;4.90;;;;;;;14.60;80.80;102093.16;5050234;28;20191;-74
2023/09/24 08:25:08;;;;;;;7.87;4.47;;;;;;;14.71;80.02;102095.16;5041604;28;20195;-74
2023/09/24 08:27:34;;;;;;;8.70;5.27;;;;;;;14.80;79.12;102103.88;5042803;28;20227;-75
2023/09/24 08:30:08;;;;;;;6.30;4.90;;;;;;;14.89;78.71;102096.69;5031620;28;20228;-74
2023/09/24 08:32:34;;;;;;;5.43;4.50;;;;;;;15.03;77.93;102110.56;5026214;28;20226;-74
2023/09/24 08:35:02;;;;;;;9.23;4.77;;;;;;;15.20;78.09;102109.72;5045078;28;20902;-75
2023/09/24 08:37:28;;;;;;;6.00;4.53;;;;;;;15.31;77.43;102105.63;5055541;28;20607;-74
2023/09/24 08:39:55;;;;;;;5.20;3.83;;;;;;;15.48;77.14;102111.66;5027857;28;20234;-74
2023/09/24 08:42:22;;;;;;;7.87;4.03;;;;;;;15.64;76.56;102111.91;5044301;28;20193;-74
2023/09/24 08:44:58;;;;;;;8.17;4.17;;;;;;;15.71;75.88;102117.50;5047885;28;20237;-73
2023/09/24 08:47:26;;;;;;;5.00;3.67;;;;;;;15.80;75.95;102112.91;5045816;28;20208;-73
2023/09/24 08:49:53;;;;;;;5.83;3.80;;;;;;;15.89;75.70;102126.94;5032463;28;20686;-73
2023/09/24 08:52:21;;;;;;;5.20;3.93;;;;;;;15.96;75.98;102119.22;5032360;28;20219;-73
2023/09/24 08:54:49;;;;;;;4.37;3.97;;;;;;;16.03;76.33;102124.78;5044250;28;20206;-73
2023/09/24 08:57:15;;;;;;;4.27;3.77;;;;;;;16.10;74.80;102125.06;5046542;28;20213;-73
2023/09/24 08:59:41;;;;;;;4.70;4.17;;;;;;;16.15;74.53;102133.66;5038238;28;20227;-73
2023/09/24 09:02:07;;;;;;;4.77;4.10;;;;;;;16.21;75.23;102134.25;5043556;28;20217;-73
2023/09/24 09:04:47;;;;;;;4.10;3.47;;;;;;;16.22;73.54;102131.25;5037163;28;20225;-73
2023/09/24 09:07:14;;;;;;;5.97;4.00;;;;;;;16.24;73.01;102130.94;5044014;28;20202;-73
2023/09/24 09:09:41;;;;;;;5.23;4.00;;;;;;;16.28;72.63;102134.50;5033380;28;20210;-73
2023/09/24 09:12:18;;;;;;;5.47;4.17;;;;;;;16.34;71.65;102136.66;5043273;28;20273;-72
2023/09/24 09:14:44;;;;;;;5.17;3.90;;;;;;;16.36;70.86;102137.09;5035440;28;20203;-73
2023/09/24 09:17:10;;;;;;;4.47;3.60;;;;;;;16.42;71.55;102141.16;5045958;28;20218;-73
2023/09/24 09:19:49;;;;;;;3.83;3.43;;;;;;;16.53;71.57;102136.19;5035148;28;20641;-73
2023/09/24 09:22:20;;;;;;;7.20;4.07;;;;;;;16.67;71.94;102137.47;5046208;28;20286;-73
2023/09/24 09:24:47;;;;;;;4.90;4.03;;;;;;;16.87;71.70;102133.22;5043965;28;20202;-73
2023/09/24 09:27:14;;;;;;;5.30;3.97;;;;;;;17.00;68.58;102127.56;5038377;28;20226;-73
2023/09/24 09:29:40;;;;;;;4.07;3.30;;;;;;;17.14;69.78;102132.59;5041024;28;20235;-73
2023/09/24 09:32:06;;;;;;;5.97;3.30;;;;;;;17.28;70.36;102130.41;5036242;28;20903;-73
2023/09/24 09:34:33;;;;;;;8.53;3.50;;;;;;;17.45;68.84;102132.88;5034373;28;20194;-73
2023/09/24 09:37:20;;;;;;;4.73;2.97;;;;;;;17.62;70.81;102129.97;5027770;28;20246;-73
2023/09/24 09:39:46;;;;;;;4.27;2.97;;;;;;;17.72;66.29;102134.88;5032698;28;20223;-73
2023/09/24 09:42:20;;;;;;;3.13;2.60;;;;;;;17.80;66.78;102137.41;5033852;28;20194;-73
2023/09/24 09:44:49;;;;;;;5.60;3.40;;;;;;;17.87;66.14;102139.53;5037549;28;21089;-73
2023/09/24 09:47:18;;;;;;;3.20;2.90;;;;;;;17.92;66.59;102134.75;5038140;28;20670;-73
2023/09/24 09:49:55;;;;;;;4.53;3.30;;;;;;;17.92;66.90;102148.09;5044375;28;20230;-73
2023/09/24 09:52:28;;;;;;;4.00;3.23;;;;;;;17.96;65.72;102140.19;5033484;28;20211;-73
2023/09/24 09:54:57;;;;;;;6.93;2.87;;;;;;;17.97;64.93;102136.41;5036014;28;20211;-73
2023/09/24 09:57:24;;;;;;;4.40;3.07;;;;;;;17.98;65.08;102138.75;5043448;28;20200;-73
2023/09/24 09:59:52;;;;;;;3.57;2.70;;;;;;;18.04;64.41;102131.25;5039232;28;20313;-73
2023/09/24 10:02:19;;;;;;;2.37;2.17;;;;;;;18.09;63.20;102131.81;5034565;28;20209;-73
2023/09/24 10:04:47;;;;;;;3.63;2.47;;;;;;;18.02;61.75;102130.81;5039758;28;20592;-73
2023/09/24 10:07:14;;;;;;;3.13;2.43;;;;;;;18.03;64.94;102137.72;5044927;28;20192;-73
2023/09/24 10:09:41;;;;;;;4.23;2.50;;;;;;;18.03;63.97;102129.69;5039562;28;20893;-73
2023/09/24 10:12:08;;;;;;;3.17;2.60;;;;;;;18.06;64.66;102137.81;5040084;28;20261;-73
2023/09/24 10:14:36;;;;;;;3.73;2.67;;;;;;;18.08;63.91;102138.28;5040804;28;20203;-73
2023/09/24 10:17:25;;;;;;;4.50;2.60;;;;;;;18.20;64.33;102132.09;5045817;28;20685;-74
2023/09/24 10:19:53;;;;;;;2.63;2.20;;;;;;;18.32;62.85;102137.47;5040161;28;20640;-74
2023/09/24 10:22:31;;;;;;;2.63;2.00;;;;;;;18.49;63.65;102139.84;5039801;28;20227;-74
2023/09/24 10:24:59;;;;;;;3.70;2.50;;;;;;;18.54;65.44;102145.75;5041397;28;20277;-74
2023/09/24 10:27:28;;;;;;;3.80;2.40;;;;;;;18.63;63.67;102142.91;5034293;28;20200;-74
2023/09/24 10:30:10;;;;;;;2.87;2.07;;;;;;;18.68;61.03;102143.44;5029676;28;20234;-74
2023/09/24 10:32:50;;;;;;;2.77;2.13;;;;;;;18.63;61.36;102141.00;5041157;28;20640;-74
2023/09/24 10:35:18;;;;;;;2.63;2.30;;;;;;;18.60;62.08;102144.38;5042398;28;20212;-74
2023/09/24 10:38:03;;;;;;;2.97;2.03;;;;;;;18.56;60.90;102140.03;5033553;28;20203;-74
2023/09/24 10:40:33;;;;;;;5.40;2.03;;;;;;;18.51;63.53;102137.59;5043263;28;20257;-74
2023/09/24 10:43:17;;;;;;;3.67;2.33;;;;;;;18.48;61.48;102138.28;5040922;28;20199;-74
2023/09/24 10:45:45;;;;;;;4.63;2.23;;;;;;;18.45;60.74;102138.97;5041539;28;20280;-75
2023/09/24 10:48:12;;;;;;;3.87;2.20;;;;;;;18.52;62.49;102139.94;5026391;28;20284;-74
2023/09/24 10:50:40;;;;;;;4.17;2.33;;;;;;;18.62;61.79;102144.03;5042795;28;20215;-74
2023/09/24 10:53:07;;;;;;;4.50;1.90;;;;;;;18.73;62.01;102137.81;5034824;28;20215;-74
2023/09/24 10:55:37;;;;;;;3.10;1.90;;;;;;;18.88;61.40;102136.31;5016978;28;20200;-73
2023/09/24 10:58:06;;;;;;;2.23;2.03;;;;;;;19.02;59.24;102137.44;5038698;28;20203;-75
2023/09/24 11:00:34;;;;;;;4.73;2.00;;;;;;;19.16;59.03;102140.50;5036179;28;20557;-74
2023/09/24 11:03:02;;;;;;;4.87;1.80;;;;;;;19.26;58.95;102140.00;5039958;28;20269;-74
2023/09/24 11:05:30;;;;;;;1.90;1.53;;;;;;;19.36;58.72;102141.38;5036748;28;20198;-74
2023/09/24 11:07:57;;;;;;;3.73;1.50;;;;;;;19.48;59.67;102139.38;5038917;28;20203;-74
2023/09/24 11:10:25;;;;;;;2.50;1.40;;;;;;;19.56;58.53;102141.09;5035963;28;20646;-74
2023/09/24 11:12:54;;;;;;;2.20;1.30;;;;;;;19.54;58.16;102143.34;5037250;28;20215;-74
2023/09/24 11:15:22;;;;;;;2.43;1.40;;;;;;;19.51;58.13;102151.31;5034428;28;20199;-73
2023/09/24 11:17:50;;;;;;;1.37;1.10;;;;;;;19.43;57.18;102144.22;5043276;28;20199;-73
2023/09/24 11:20:17;;;;;;;1.60;1.00;;;;;;;19.35;57.14;102139.81;5036266;28;20250;-73
2023/09/24 11:22:44;;;;;;;1.30;1.10;;;;;;;19.28;58.58;102137.75;5039076;28;21489;-74
2023/09/24 11:25:12;;;;;;;1.93;1.03;;;;;;;19.14;57.02;102140.03;5042131;28;20211;-73
2023/09/24 11:27:47;;;;;;;1.30;0.80;;;;;;;19.05;57.11;102136.00;5040821;28;20216;-73
2023/09/24 11:30:15;;;;;;;2.60;1.00;;;;;;;18.99;57.08;102132.00;5031390;28;20234;-73
2023/09/24 11:32:42;;;;;;;1.00;0.90;;;;;;;19.00;58.93;102134.31;5033039;28;20216;-73